Details From RCSS - Sungshan
To RCFN - FENGNIN
Flight Number -
Tags decoded
Created
Modified
Stats Distance 163 nm / 302 km
Max Altitude 0 ft / 0 m
Waypoints 4
Social Downloads 2
Likes 0
Share VATSIM

Download

Looking for another format? Having issues loading an existing format? Contact us
Advertisement - Login to hide

Notes

Requested: RCSS WADER TINHO TITUS WAGON JICHI TACLE GID RCFN Unmatched points: B591

Route

RCSS WADER TACLE RCFN

ID Type Via Altitude Latitude Longitude Leg Dist Tot Dist Heading (true) Name
O RCSS APT - 0 ft / 0 m 25.06959˚ 121.55257˚ - 0 nm - Sungshan
WADER FIX - 0 ft / 0 m 24.50639˚ 121.93472˚ 39 nm 39 nm 148° / 148° -
TACLE FIX - 0 ft / 0 m 22.99389˚ 121.58694˚ 92 nm 132 nm 192° / 192° -
O RCFN APT - 0 ft / 0 m 22.75487˚ 121.10165˚ 30 nm 163 nm 242° / 242° FENGNIN

Altitude Profile

Advertisement - Login to hide

Weather


0- 5 10 15 20 25 30 35+ Temperature / ° C

Clouds and Precipitation
Forecast for 2017-12-16 00:00 UTC. Updated an hour ago

Ground ~20,000 ft ~40,000 ft Winds

RCSS

Details ICAO RCSS (TSA)
Name Sungshan
Region Republic of China (Taiwan)
Timezone Asia/Taipei (UTC+8.0)
Stats Elevation 18 ft / 5 m (AMSL)
Location 25.069586° 121.552570°
Runways 1
Magnetic Variation 4.481° W

METAR

RCSS 151900Z 26001KT 9999 FEW020 BKN045 BKN090 19/16 Q1019 NOSIG RMK A3009

Decode

TAF

TAF RCSS 151700Z 1518/1618 10005KT 9999 FEW012 BKN032 TEMPO 1522/1604 30005KT 4000 RA SCT010 BKN016 BKN030 TEMPO 1604/1610 08010KT 5000 RA FEW010 BKN020 BKN040 BECMG 1610/1612 09010KT

Decode

Departure Runways

ID Width Length Bearing (true) Bearing (mag) Surface Threshold Offset Overrun Length
10 197 ft / 60 m 8,566 ft / 2,611 m 92.26° 96.74° Asphalt 0 ft / 0 m 197 ft / 60 m
28 197 ft / 60 m 8,566 ft / 2,611 m 272.27° 276.75° Asphalt 0 ft / 0 m 525 ft / 160 m

RCFN

Details ICAO RCFN (TTT)
Name FENGNIN
Region Republic of China (Taiwan)
Timezone Asia/Taipei (UTC+8.0)
Stats Elevation 143 ft / 44 m (AMSL)
Location 22.754872° 121.101650°
Runways 1
Magnetic Variation 3.903° W

METAR

Not found

TAF

TAF RCFN 151700Z 1518/1618 35005KT 9999 FEW020 BKN035 TEMPO 1602/1608 06009KT BECMG 1608/1610 01010KT

Decode

Destination Runways

ID Width Length Bearing (true) Bearing (mag) Surface Threshold Offset Overrun Length
04 148 ft / 45 m 8,019 ft / 2,444 m 38.51° 42.41° Asphalt 0 ft / 0 m 750 ft / 229 m
22 148 ft / 45 m 8,019 ft / 2,444 m 218.52° 222.42° Asphalt 0 ft / 0 m 745 ft / 227 m

Popular Alternatives